sensor_id;sensor_type;location;lat;lon;timestamp;pressure;altitude;pressure_sealevel;temperature
79053;BMP280;68451;49.510;6.026;2024-01-15T00:00:29;97151.72;;;-3.10
79053;BMP280;68451;49.510;6.026;2024-01-15T00:02:56;97132.38;;;-3.21
79053;BMP280;68451;49.510;6.026;2024-01-15T00:05:24;97097.41;;;-3.36
79053;BMP280;68451;49.510;6.026;2024-01-15T00:07:51;97116.72;;;-3.26
79053;BMP280;68451;49.510;6.026;2024-01-15T00:10:17;97122.69;;;-3.09
79053;BMP280;68451;49.510;6.026;2024-01-15T00:12:44;97098.22;;;-3.28
79053;BMP280;68451;49.510;6.026;2024-01-15T00:15:11;97126.19;;;-3.10
79053;BMP280;68451;49.510;6.026;2024-01-15T00:17:39;97111.47;;;-3.16
79053;BMP280;68451;49.510;6.026;2024-01-15T00:20:06;97094.41;;;-3.24
79053;BMP280;68451;49.510;6.026;2024-01-15T00:22:33;97055.91;;;-3.38
79053;BMP280;68451;49.510;6.026;2024-01-15T00:25:02;97123.66;;;-3.02
79053;BMP280;68451;49.510;6.026;2024-01-15T00:27:29;97098.44;;;-3.13
79053;BMP280;68451;49.510;6.026;2024-01-15T00:29:56;97130.50;;;-2.94
79053;BMP280;68451;49.510;6.026;2024-01-15T00:32:23;97068.41;;;-3.19
79053;BMP280;68451;49.510;6.026;2024-01-15T00:34:50;97113.44;;;-2.94
79053;BMP280;68451;49.510;6.026;2024-01-15T00:37:17;97084.06;;;-3.14
79053;BMP280;68451;49.510;6.026;2024-01-15T00:39:44;97104.50;;;-2.90
79053;BMP280;68451;49.510;6.026;2024-01-15T00:42:11;97074.31;;;-3.02
79053;BMP280;68451;49.510;6.026;2024-01-15T00:44:38;97054.03;;;-3.12
79053;BMP280;68451;49.510;6.026;2024-01-15T00:47:05;96890.50;;;-4.08
79053;BMP280;68451;49.510;6.026;2024-01-15T00:49:32;97032.34;;;-3.24
79053;BMP280;68451;49.510;6.026;2024-01-15T00:51:59;97054.22;;;-3.13
79053;BMP280;68451;49.510;6.026;2024-01-15T00:54:26;97061.88;;;-3.05
79053;BMP280;68451;49.510;6.026;2024-01-15T00:56:53;97062.69;;;-2.97
79053;BMP280;68451;49.510;6.026;2024-01-15T00:59:21;97022.47;;;-3.11
79053;BMP280;68451;49.510;6.026;2024-01-15T01:01:48;97044.81;;;-2.89
79053;BMP280;68451;49.510;6.026;2024-01-15T01:04:15;97058.25;;;-2.95
79053;BMP280;68451;49.510;6.026;2024-01-15T01:06:43;96930.09;;;-3.71
79053;BMP280;68451;49.510;6.026;2024-01-15T01:09:10;97043.88;;;-2.96
79053;BMP280;68451;49.510;6.026;2024-01-15T01:11:37;96942.97;;;-3.65
79053;BMP280;68451;49.510;6.026;2024-01-15T01:14:03;97067.50;;;-2.86
79053;BMP280;68451;49.510;6.026;2024-01-15T01:16:30;97040.19;;;-3.01
79053;BMP280;68451;49.510;6.026;2024-01-15T01:18:58;97029.50;;;-3.05
79053;BMP280;68451;49.510;6.026;2024-01-15T01:21:25;97048.00;;;-2.87
79053;BMP280;68451;49.510;6.026;2024-01-15T01:23:52;97028.88;;;-2.91
79053;BMP280;68451;49.510;6.026;2024-01-15T01:26:18;96990.72;;;-3.08
79053;BMP280;68451;49.510;6.026;2024-01-15T01:28:45;96817.72;;;-4.02
79053;BMP280;68451;49.510;6.026;2024-01-15T01:31:12;97012.75;;;-2.91
79053;BMP280;68451;49.510;6.026;2024-01-15T01:33:39;96991.03;;;-3.11
79053;BMP280;68451;49.510;6.026;2024-01-15T01:36:09;96872.19;;;-3.79
79053;BMP280;68451;49.510;6.026;2024-01-15T01:38:37;97021.19;;;-2.91
79053;BMP280;68451;49.510;6.026;2024-01-15T01:41:04;96898.34;;;-3.77
79053;BMP280;68451;49.510;6.026;2024-01-15T01:43:31;97028.38;;;-2.86
79053;BMP280;68451;49.510;6.026;2024-01-15T01:45:58;97041.97;;;-2.86
79053;BMP280;68451;49.510;6.026;2024-01-15T01:48:27;97061.41;;;-2.77
79053;BMP280;68451;49.510;6.026;2024-01-15T01:50:57;97051.50;;;-2.80
79053;BMP280;68451;49.510;6.026;2024-01-15T01:53:26;97065.88;;;-2.62
79053;BMP280;68451;49.510;6.026;2024-01-15T01:55:54;97070.34;;;-2.56
79053;BMP280;68451;49.510;6.026;2024-01-15T01:58:22;97029.66;;;-2.82
79053;BMP280;68451;49.510;6.026;2024-01-15T02:00:49;97005.56;;;-2.88
79053;BMP280;68451;49.510;6.026;2024-01-15T02:03:16;97049.91;;;-2.56
79053;BMP280;68451;49.510;6.026;2024-01-15T02:05:43;96936.63;;;-3.28
79053;BMP280;68451;49.510;6.026;2024-01-15T02:08:13;97032.19;;;-2.66
79053;BMP280;68451;49.510;6.026;2024-01-15T02:10:40;97058.81;;;-2.44
79053;BMP280;68451;49.510;6.026;2024-01-15T02:13:07;97049.56;;;-2.53
79053;BMP280;68451;49.510;6.026;2024-01-15T02:15:34;97038.38;;;-2.44
79053;BMP280;68451;49.510;6.026;2024-01-15T02:18:04;97021.16;;;-2.50
79053;BMP280;68451;49.510;6.026;2024-01-15T02:20:32;97029.28;;;-2.47
79053;BMP280;68451;49.510;6.026;2024-01-15T02:25:47;96969.78;;;-2.80
79053;BMP280;68451;49.510;6.026;2024-01-15T02:28:16;97023.72;;;-2.50
79053;BMP280;68451;49.510;6.026;2024-01-15T02:30:44;97043.97;;;-2.41
79053;BMP280;68451;49.510;6.026;2024-01-15T02:33:11;97049.72;;;-2.39
79053;BMP280;68451;49.510;6.026;2024-01-15T02:35:39;96746.97;;;-4.24
79053;BMP280;68451;49.510;6.026;2024-01-15T02:38:07;97007.28;;;-2.56
79053;BMP280;68451;49.510;6.026;2024-01-15T02:40:34;97043.16;;;-2.33
79053;BMP280;68451;49.510;6.026;2024-01-15T02:43:01;96893.56;;;-3.31
79053;BMP280;68451;49.510;6.026;2024-01-15T02:45:28;97037.09;;;-2.40
79053;BMP280;68451;49.510;6.026;2024-01-15T02:47:56;97023.53;;;-2.49
79053;BMP280;68451;49.510;6.026;2024-01-15T02:50:23;97012.06;;;-2.61
79053;BMP280;68451;49.510;6.026;2024-01-15T02:52:50;97034.22;;;-2.37
79053;BMP280;68451;49.510;6.026;2024-01-15T02:55:17;96991.16;;;-2.64
79053;BMP280;68451;49.510;6.026;2024-01-15T02:57:44;97052.72;;;-2.27
79053;BMP280;68451;49.510;6.026;2024-01-15T03:00:11;97002.63;;;-2.52
79053;BMP280;68451;49.510;6.026;2024-01-15T03:02:39;97008.84;;;-2.47
79053;BMP280;68451;49.510;6.026;2024-01-15T03:05:10;97019.38;;;-2.42
79053;BMP280;68451;49.510;6.026;2024-01-15T03:07:37;97052.06;;;-2.21
79053;BMP280;68451;49.510;6.026;2024-01-15T03:10:07;96870.13;;;-3.27
79053;BMP280;68451;49.510;6.026;2024-01-15T03:12:34;97045.22;;;-2.20
79053;BMP280;68451;49.510;6.026;2024-01-15T03:15:02;97021.91;;;-2.34
79053;BMP280;68451;49.510;6.026;2024-01-15T03:17:29;97018.22;;;-2.31
79053;BMP280;68451;49.510;6.026;2024-01-15T03:19:56;96883.50;;;-3.08
79053;BMP280;68451;49.510;6.026;2024-01-15T03:22:23;96994.91;;;-2.36
79053;BMP280;68451;49.510;6.026;2024-01-15T03:24:50;96989.50;;;-2.41
79053;BMP280;68451;49.510;6.026;2024-01-15T03:27:17;97000.78;;;-2.28
79053;BMP280;68451;49.510;6.026;2024-01-15T03:29:44;97030.31;;;-2.09
79053;BMP280;68451;49.510;6.026;2024-01-15T03:32:11;97017.69;;;-2.10
79053;BMP280;68451;49.510;6.026;2024-01-15T03:34:38;97015.94;;;-2.18
79053;BMP280;68451;49.510;6.026;2024-01-15T03:37:05;97016.25;;;-2.13
79053;BMP280;68451;49.510;6.026;2024-01-15T03:39:32;96872.47;;;-3.01
79053;BMP280;68451;49.510;6.026;2024-01-15T03:41:59;97002.66;;;-2.13
79053;BMP280;68451;49.510;6.026;2024-01-15T03:44:26;96988.81;;;-2.19
79053;BMP280;68451;49.510;6.026;2024-01-15T03:46:53;96906.06;;;-2.65
79053;BMP280;68451;49.510;6.026;2024-01-15T03:49:20;96980.63;;;-2.14
79053;BMP280;68451;49.510;6.026;2024-01-15T03:51:47;96999.88;;;-1.96
79053;BMP280;68451;49.510;6.026;2024-01-15T03:54:14;96944.44;;;-2.34
79053;BMP280;68451;49.510;6.026;2024-01-15T03:56:44;96998.47;;;-1.98
79053;BMP280;68451;49.510;6.026;2024-01-15T03:59:11;96837.66;;;-3.02
79053;BMP280;68451;49.510;6.026;2024-01-15T04:01:38;96986.19;;;-2.03
79053;BMP280;68451;49.510;6.026;2024-01-15T04:04:05;96818.88;;;-3.09
79053;BMP280;68451;49.510;6.026;2024-01-15T04:06:32;96917.94;;;-2.41
79053;BMP280;68451;49.510;6.026;2024-01-15T04:08:59;96989.34;;;-1.93
79053;BMP280;68451;49.510;6.026;2024-01-15T04:11:26;96941.50;;;-2.23
79053;BMP280;68451;49.510;6.026;2024-01-15T04:13:52;96828.69;;;-2.90
79053;BMP280;68451;49.510;6.026;2024-01-15T04:16:19;96957.44;;;-2.13
79053;BMP280;68451;49.510;6.026;2024-01-15T04:18:46;96942.78;;;-2.27
79053;BMP280;68451;49.510;6.026;2024-01-15T04:21:13;96956.16;;;-2.09
79053;BMP280;68451;49.510;6.026;2024-01-15T04:23:40;96935.72;;;-2.17
79053;BMP280;68451;49.510;6.026;2024-01-15T04:26:07;96782.84;;;-3.14
79053;BMP280;68451;49.510;6.026;2024-01-15T04:28:34;96676.19;;;-3.82
79053;BMP280;68451;49.510;6.026;2024-01-15T04:31:00;96942.56;;;-2.09
79053;BMP280;68451;49.510;6.026;2024-01-15T04:33:27;96963.47;;;-1.98
79053;BMP280;68451;49.510;6.026;2024-01-15T04:35:55;96909.09;;;-2.31
79053;BMP280;68451;49.510;6.026;2024-01-15T04:38:22;96944.47;;;-2.03
79053;BMP280;68451;49.510;6.026;2024-01-15T04:40:48;96921.31;;;-2.10
79053;BMP280;68451;49.510;6.026;2024-01-15T04:43:15;96921.31;;;-2.10
79053;BMP280;68451;49.510;6.026;2024-01-15T04:45:42;96916.66;;;-2.06
79053;BMP280;68451;49.510;6.026;2024-01-15T04:48:09;96903.13;;;-2.15
79053;BMP280;68451;49.510;6.026;2024-01-15T04:50:36;96915.06;;;-2.07
79053;BMP280;68451;49.510;6.026;2024-01-15T04:53:03;96908.53;;;-2.10
79053;BMP280;68451;49.510;6.026;2024-01-15T04:55:30;96932.75;;;-1.98
79053;BMP280;68451;49.510;6.026;2024-01-15T04:57:57;96951.53;;;-1.83
79053;BMP280;68451;49.510;6.026;2024-01-15T05:00:23;96954.44;;;-1.86
79053;BMP280;68451;49.510;6.026;2024-01-15T07:57:29;96856.28;;;-1.47
79053;BMP280;68451;49.510;6.026;2024-01-15T07:59:56;96838.16;;;-1.60
79053;BMP280;68451;49.510;6.026;2024-01-15T08:02:22;96862.38;;;-1.48
79053;BMP280;68451;49.510;6.026;2024-01-15T08:04:49;96862.47;;;-1.56
79053;BMP280;68451;49.510;6.026;2024-01-15T08:07:16;96884.41;;;-1.39
79053;BMP280;68451;49.510;6.026;2024-01-15T08:09:44;96852.22;;;-1.56
79053;BMP280;68451;49.510;6.026;2024-01-15T08:12:13;96866.19;;;-1.44
79053;BMP280;68451;49.510;6.026;2024-01-15T08:14:40;96864.25;;;-1.42
79053;BMP280;68451;49.510;6.026;2024-01-15T08:17:07;96713.81;;;-2.44
79053;BMP280;68451;49.510;6.026;2024-01-15T08:19:33;96580.09;;;-3.20
79053;BMP280;68451;49.510;6.026;2024-01-15T08:22:01;96852.44;;;-1.43
79053;BMP280;68451;49.510;6.026;2024-01-15T08:24:28;96626.06;;;-2.97
79053;BMP280;68451;49.510;6.026;2024-01-15T08:26:55;96854.53;;;-1.47
79053;BMP280;68451;49.510;6.026;2024-01-15T08:29:22;96781.69;;;-1.96
79053;BMP280;68451;49.510;6.026;2024-01-15T08:31:51;96895.72;;;-1.19
79053;BMP280;68451;49.510;6.026;2024-01-15T08:34:18;96888.47;;;-1.30
79053;BMP280;68451;49.510;6.026;2024-01-15T08:36:46;96892.88;;;-1.24
79053;BMP280;68451;49.510;6.026;2024-01-15T08:39:13;96856.75;;;-1.44
79053;BMP280;68451;49.510;6.026;2024-01-15T08:41:40;96726.88;;;-2.16
79053;BMP280;68451;49.510;6.026;2024-01-15T08:44:06;96857.28;;;-1.33
79053;BMP280;68451;49.510;6.026;2024-01-15T08:46:33;96811.28;;;-1.56
79053;BMP280;68451;49.510;6.026;2024-01-15T08:49:00;96845.72;;;-1.44
79053;BMP280;68451;49.510;6.026;2024-01-15T08:51:27;96851.56;;;-1.36
79053;BMP280;68451;49.510;6.026;2024-01-15T08:53:56;96835.75;;;-1.39
79053;BMP280;68451;49.510;6.026;2024-01-15T08:56:23;96869.31;;;-1.19
79053;BMP280;68451;49.510;6.026;2024-01-15T08:58:50;96872.78;;;-1.12
79053;BMP280;68451;49.510;6.026;2024-01-15T09:01:16;96860.56;;;-1.25
79053;BMP280;68451;49.510;6.026;2024-01-15T09:03:43;96794.41;;;-1.65
79053;BMP280;68451;49.510;6.026;2024-01-15T09:06:10;96834.06;;;-1.32
79053;BMP280;68451;49.510;6.026;2024-01-15T09:08:37;96855.38;;;-1.17
79053;BMP280;68451;49.510;6.026;2024-01-15T09:11:05;96852.81;;;-1.17
79053;BMP280;68451;49.510;6.026;2024-01-15T09:13:31;96861.22;;;-1.08
79053;BMP280;68451;49.510;6.026;2024-01-15T09:15:58;96896.50;;;-0.81
79053;BMP280;68451;49.510;6.026;2024-01-15T09:18:26;96773.84;;;-1.57
79053;BMP280;68451;49.510;6.026;2024-01-15T09:20:54;96884.00;;;-0.84
79053;BMP280;68451;49.510;6.026;2024-01-15T09:23:21;96879.44;;;-0.74
79053;BMP280;68451;49.510;6.026;2024-01-15T09:25:48;96868.75;;;-0.77
79053;BMP280;68451;49.510;6.026;2024-01-15T09:28:15;96837.81;;;-1.05
79053;BMP280;68451;49.510;6.026;2024-01-15T09:30:42;96902.13;;;-0.56
79053;BMP280;68451;49.510;6.026;2024-01-15T09:33:09;96870.84;;;-0.66
79053;BMP280;68451;49.510;6.026;2024-01-15T09:35:36;96873.94;;;-0.56
79053;BMP280;68451;49.510;6.026;2024-01-15T09:38:03;96730.81;;;-1.39
79053;BMP280;68451;49.510;6.026;2024-01-15T09:40:31;96747.66;;;-1.30
79053;BMP280;68451;49.510;6.026;2024-01-15T09:43:00;96850.19;;;-0.65
79053;BMP280;68451;49.510;6.026;2024-01-15T09:45:28;96908.41;;;-0.29
79053;BMP280;68451;49.510;6.026;2024-01-15T09:47:55;96874.81;;;-0.49
79053;BMP280;68451;49.510;6.026;2024-01-15T09:50:23;96869.09;;;-0.51
79053;BMP280;68451;49.510;6.026;2024-01-15T09:52:50;96888.53;;;-0.42
79053;BMP280;68451;49.510;6.026;2024-01-15T09:55:18;96921.75;;;-0.19
79053;BMP280;68451;49.510;6.026;2024-01-15T09:57:45;96872.06;;;-0.48
79053;BMP280;68451;49.510;6.026;2024-01-15T10:00:17;96907.75;;;-0.17
79053;BMP280;68451;49.510;6.026;2024-01-15T10:02:45;96834.59;;;-0.49
79053;BMP280;68451;49.510;6.026;2024-01-15T10:05:12;96892.78;;;-0.13
79053;BMP280;68451;49.510;6.026;2024-01-15T10:07:40;96875.03;;;-0.15
79053;BMP280;68451;49.510;6.026;2024-01-15T10:10:07;96742.25;;;-1.06
79053;BMP280;68451;49.510;6.026;2024-01-15T10:12:34;96877.25;;;-0.26
79053;BMP280;68451;49.510;6.026;2024-01-15T10:15:01;96861.97;;;-0.20
79053;BMP280;68451;49.510;6.026;2024-01-15T10:17:28;96872.91;;;-0.11
79053;BMP280;68451;49.510;6.026;2024-01-15T10:19:56;96893.03;;;0.07
79053;BMP280;68451;49.510;6.026;2024-01-15T10:22:22;96878.03;;;-0.11
79053;BMP280;68451;49.510;6.026;2024-01-15T10:24:49;96851.94;;;-0.15
79053;BMP280;68451;49.510;6.026;2024-01-15T10:27:16;96879.09;;;-0.06
79053;BMP280;68451;49.510;6.026;2024-01-15T10:29:43;96858.06;;;-0.16
79053;BMP280;68451;49.510;6.026;2024-01-15T10:32:11;96860.50;;;-0.08
79053;BMP280;68451;49.510;6.026;2024-01-15T10:34:41;96854.03;;;-0.04
79053;BMP280;68451;49.510;6.026;2024-01-15T10:37:10;96878.38;;;0.22
79053;BMP280;68451;49.510;6.026;2024-01-15T10:39:37;96784.00;;;-0.40
79053;BMP280;68451;49.510;6.026;2024-01-15T10:42:05;96825.94;;;-0.12
79053;BMP280;68451;49.510;6.026;2024-01-15T10:44:34;96904.44;;;0.40
79053;BMP280;68451;49.510;6.026;2024-01-15T10:47:01;96874.72;;;0.31
79053;BMP280;68451;49.510;6.026;2024-01-15T10:49:28;96879.47;;;0.34
79053;BMP280;68451;49.510;6.026;2024-01-15T10:52:01;96854.34;;;0.29
79053;BMP280;68451;49.510;6.026;2024-01-15T10:54:29;96840.72;;;0.29
79053;BMP280;68451;49.510;6.026;2024-01-15T10:56:57;96864.91;;;0.41
79053;BMP280;68451;49.510;6.026;2024-01-15T10:59:24;96745.78;;;-0.35
79053;BMP280;68451;49.510;6.026;2024-01-15T11:01:52;96873.06;;;0.44
79053;BMP280;68451;49.510;6.026;2024-01-15T11:04:23;96872.63;;;0.41
79053;BMP280;68451;49.510;6.026;2024-01-15T11:06:54;96879.41;;;0.49
79053;BMP280;68451;49.510;6.026;2024-01-15T11:09:23;96800.41;;;0.02
79053;BMP280;68451;49.510;6.026;2024-01-15T11:11:53;96903.06;;;0.65
79053;BMP280;68451;49.510;6.026;2024-01-15T11:17:06;96708.75;;;-0.54
79053;BMP280;68451;49.510;6.026;2024-01-15T11:19:44;96866.94;;;0.45
79053;BMP280;68451;49.510;6.026;2024-01-15T11:25:22;96917.28;;;0.89
79053;BMP280;68451;49.510;6.026;2024-01-15T11:27:51;96890.41;;;0.64
79053;BMP280;68451;49.510;6.026;2024-01-15T11:30:24;96918.88;;;0.90
79053;BMP280;68451;49.510;6.026;2024-01-15T11:32:52;96776.59;;;0.08
79053;BMP280;68451;49.510;6.026;2024-01-15T11:35:19;96882.44;;;0.80
79053;BMP280;68451;49.510;6.026;2024-01-15T11:40:23;96901.50;;;0.92
79053;BMP280;68451;49.510;6.026;2024-01-15T11:42:50;96898.69;;;0.87
79053;BMP280;68451;49.510;6.026;2024-01-15T11:45:19;96738.22;;;-0.01
79053;BMP280;68451;49.510;6.026;2024-01-15T11:50:39;96915.31;;;1.19
79053;BMP280;68451;49.510;6.026;2024-01-15T11:55:44;96885.47;;;1.18
79053;BMP280;68451;49.510;6.026;2024-01-15T11:58:15;96920.56;;;1.32
79053;BMP280;68451;49.510;6.026;2024-01-15T12:00:44;96890.38;;;1.13
79053;BMP280;68451;49.510;6.026;2024-01-15T12:03:12;96872.84;;;0.95
79053;BMP280;68451;49.510;6.026;2024-01-15T12:05:39;96820.41;;;0.55
79053;BMP280;68451;49.510;6.026;2024-01-15T12:08:08;96894.69;;;1.06
79053;BMP280;68451;49.510;6.026;2024-01-15T12:10:38;96911.25;;;1.31
79053;BMP280;68451;49.510;6.026;2024-01-15T12:13:15;96908.50;;;1.32
79053;BMP280;68451;49.510;6.026;2024-01-15T12:15:47;96895.34;;;1.21
79053;BMP280;68451;49.510;6.026;2024-01-15T12:18:17;96906.31;;;1.29
79053;BMP280;68451;49.510;6.026;2024-01-15T12:20:45;96904.50;;;1.30
79053;BMP280;68451;49.510;6.026;2024-01-15T12:23:16;96921.16;;;1.34
79053;BMP280;68451;49.510;6.026;2024-01-15T12:25:44;96838.41;;;0.89
79053;BMP280;68451;49.510;6.026;2024-01-15T12:28:11;96906.94;;;1.38
79053;BMP280;68451;49.510;6.026;2024-01-15T12:30:38;96892.44;;;1.24
79053;BMP280;68451;49.510;6.026;2024-01-15T12:33:07;96876.47;;;1.07
79053;BMP280;68451;49.510;6.026;2024-01-15T12:35:36;96907.84;;;1.24
79053;BMP280;68451;49.510;6.026;2024-01-15T12:38:03;96892.28;;;1.32
79053;BMP280;68451;49.510;6.026;2024-01-15T12:40:32;96888.97;;;1.38
79053;BMP280;68451;49.510;6.026;2024-01-15T12:43:00;96900.84;;;1.46
79053;BMP280;68451;49.510;6.026;2024-01-15T12:45:27;96903.66;;;1.57
79053;BMP280;68451;49.510;6.026;2024-01-15T12:47:54;96898.53;;;1.57
79053;BMP280;68451;49.510;6.026;2024-01-15T12:50:24;96800.09;;;0.88
79053;BMP280;68451;49.510;6.026;2024-01-15T12:52:52;96894.59;;;1.61
79053;BMP280;68451;49.510;6.026;2024-01-15T12:55:19;96865.25;;;1.49
79053;BMP280;68451;49.510;6.026;2024-01-15T12:57:46;96896.94;;;1.56
79053;BMP280;68451;49.510;6.026;2024-01-15T13:00:14;96886.97;;;1.40
79053;BMP280;68451;49.510;6.026;2024-01-15T13:02:45;96892.22;;;1.25
79053;BMP280;68451;49.510;6.026;2024-01-15T13:05:12;96917.00;;;1.33
79053;BMP280;68451;49.510;6.026;2024-01-15T13:07:41;96899.06;;;1.12
79053;BMP280;68451;49.510;6.026;2024-01-15T13:10:12;96577.41;;;-0.98
79053;BMP280;68451;49.510;6.026;2024-01-15T13:12:40;96911.03;;;0.98
79053;BMP280;68451;49.510;6.026;2024-01-15T13:15:08;96915.75;;;0.95
79053;BMP280;68451;49.510;6.026;2024-01-15T13:17:41;96870.97;;;0.55
79053;BMP280;68451;49.510;6.026;2024-01-15T13:20:10;96941.56;;;0.86
79053;BMP280;68451;49.510;6.026;2024-01-15T13:22:38;96918.09;;;0.68
79053;BMP280;68451;49.510;6.026;2024-01-15T13:25:07;96893.47;;;0.53
79053;BMP280;68451;49.510;6.026;2024-01-15T13:27:35;96914.44;;;0.56
79053;BMP280;68451;49.510;6.026;2024-01-15T13:30:03;96947.81;;;0.77
79053;BMP280;68451;49.510;6.026;2024-01-15T13:32:31;96904.56;;;0.53
79053;BMP280;68451;49.510;6.026;2024-01-15T13:34:59;96943.06;;;0.74
79053;BMP280;68451;49.510;6.026;2024-01-15T13:37:26;96959.84;;;0.77
79053;BMP280;68451;49.510;6.026;2024-01-15T13:39:54;96962.19;;;0.72
79053;BMP280;68451;49.510;6.026;2024-01-15T13:42:21;96933.50;;;0.68
79053;BMP280;68451;49.510;6.026;2024-01-15T13:44:54;96970.63;;;0.87
79053;BMP280;68451;49.510;6.026;2024-01-15T13:47:21;96958.72;;;0.79
79053;BMP280;68451;49.510;6.026;2024-01-15T13:49:48;96951.00;;;0.79
79053;BMP280;68451;49.510;6.026;2024-01-15T13:52:16;96936.22;;;0.60
79053;BMP280;68451;49.510;6.026;2024-01-15T13:54:44;96963.47;;;0.82
79053;BMP280;68451;49.510;6.026;2024-01-15T13:57:17;96949.53;;;0.70
79053;BMP280;68451;49.510;6.026;2024-01-15T13:59:45;96964.56;;;0.73
79053;BMP280;68451;49.510;6.026;2024-01-15T14:02:12;96972.41;;;0.86
79053;BMP280;68451;49.510;6.026;2024-01-15T14:04:43;96952.66;;;0.87
79053;BMP280;68451;49.510;6.026;2024-01-15T14:07:10;96850.38;;;0.27
79053;BMP280;68451;49.510;6.026;2024-01-15T14:09:37;96968.34;;;0.99
79053;BMP280;68451;49.510;6.026;2024-01-15T14:12:05;96952.25;;;0.90
79053;BMP280;68451;49.510;6.026;2024-01-15T14:14:33;96990.84;;;1.18
79053;BMP280;68451;49.510;6.026;2024-01-15T14:17:00;96936.28;;;0.95
79053;BMP280;68451;49.510;6.026;2024-01-15T14:19:27;96983.22;;;1.24
79053;BMP280;68451;49.510;6.026;2024-01-15T14:21:55;96963.56;;;1.17
79053;BMP280;68451;49.510;6.026;2024-01-15T14:24:22;96836.88;;;0.39
79053;BMP280;68451;49.510;6.026;2024-01-15T14:26:49;96969.72;;;1.22
79053;BMP280;68451;49.510;6.026;2024-01-15T14:29:16;96971.09;;;1.18
79053;BMP280;68451;49.510;6.026;2024-01-15T14:31:45;96996.50;;;1.34
79053;BMP280;68451;49.510;6.026;2024-01-15T14:34:13;96997.06;;;1.30
79053;BMP280;68451;49.510;6.026;2024-01-15T14:36:40;97015.69;;;1.32
79053;BMP280;68451;49.510;6.026;2024-01-15T14:39:08;96984.06;;;1.10
79053;BMP280;68451;49.510;6.026;2024-01-15T14:41:36;96999.81;;;1.01
79053;BMP280;68451;49.510;6.026;2024-01-15T14:44:03;97003.44;;;1.06
79053;BMP280;68451;49.510;6.026;2024-01-15T14:46:31;96880.16;;;0.21
79053;BMP280;68451;49.510;6.026;2024-01-15T14:48:58;96857.22;;;-0.02
79053;BMP280;68451;49.510;6.026;2024-01-15T14:51:25;97026.31;;;1.01
79053;BMP280;68451;49.510;6.026;2024-01-15T14:53:52;97027.59;;;0.90
79053;BMP280;68451;49.510;6.026;2024-01-15T14:56:20;97017.81;;;0.79
79053;BMP280;68451;49.510;6.026;2024-01-15T14:58:46;97019.38;;;0.80
79053;BMP280;68451;49.510;6.026;2024-01-15T15:01:14;97027.16;;;0.87
79053;BMP280;68451;49.510;6.026;2024-01-15T15:03:41;97018.53;;;0.73
79053;BMP280;68451;49.510;6.026;2024-01-15T15:06:08;97032.97;;;0.74
79053;BMP280;68451;49.510;6.026;2024-01-15T15:08:36;97023.09;;;0.57
79053;BMP280;68451;49.510;6.026;2024-01-15T15:11:04;97014.47;;;0.43
79053;BMP280;68451;49.510;6.026;2024-01-15T15:13:31;96997.84;;;0.24
79053;BMP280;68451;49.510;6.026;2024-01-15T15:16:10;96862.88;;;-0.71
79053;BMP280;68451;49.510;6.026;2024-01-15T15:18:38;97039.97;;;0.30
79053;BMP280;68451;49.510;6.026;2024-01-15T15:21:05;97033.34;;;0.21
79053;BMP280;68451;49.510;6.026;2024-01-15T15:23:35;97069.50;;;0.40
79053;BMP280;68451;49.510;6.026;2024-01-15T15:26:02;96966.16;;;-0.33
79053;BMP280;68451;49.510;6.026;2024-01-15T15:28:30;97041.84;;;0.07
79053;BMP280;68451;49.510;6.026;2024-01-15T15:30:56;97042.56;;;0.00
79053;BMP280;68451;49.510;6.026;2024-01-15T15:33:24;97062.31;;;0.00
79053;BMP280;68451;49.510;6.026;2024-01-15T15:35:51;97027.59;;;-0.25
79053;BMP280;68451;49.510;6.026;2024-01-15T15:38:19;97084.66;;;-0.09
79053;BMP280;68451;49.510;6.026;2024-01-15T15:40:46;97071.84;;;-0.23
79053;BMP280;68451;49.510;6.026;2024-01-15T15:43:13;97076.78;;;-0.22
79053;BMP280;68451;49.510;6.026;2024-01-15T15:45:40;97103.50;;;-0.16
79053;BMP280;68451;49.510;6.026;2024-01-15T15:48:07;97091.00;;;-0.34
79053;BMP280;68451;49.510;6.026;2024-01-15T15:50:34;97088.44;;;-0.34
79053;BMP280;68451;49.510;6.026;2024-01-15T15:53:03;97084.47;;;-0.36
79053;BMP280;68451;49.510;6.026;2024-01-15T15:55:30;97107.47;;;-0.28
79053;BMP280;68451;49.510;6.026;2024-01-15T15:57:58;97089.41;;;-0.50
79053;BMP280;68451;49.510;6.026;2024-01-15T16:00:25;96979.28;;;-1.18
79053;BMP280;68451;49.510;6.026;2024-01-15T16:02:52;97055.88;;;-0.63
79053;BMP280;68451;49.510;6.026;2024-01-15T16:05:19;96902.13;;;-1.60
79053;BMP280;68451;49.510;6.026;2024-01-15T16:07:47;97090.28;;;-0.42
79053;BMP280;68451;49.510;6.026;2024-01-15T16:10:14;97106.75;;;-0.37
79053;BMP280;68451;49.510;6.026;2024-01-15T16:12:41;97090.16;;;-0.49
79053;BMP280;68451;49.510;6.026;2024-01-15T16:15:20;97109.47;;;-0.38
79053;BMP280;68451;49.510;6.026;2024-01-15T16:17:51;97070.72;;;-0.58
79053;BMP280;68451;49.510;6.026;2024-01-15T16:20:40;97138.97;;;-0.20
79053;BMP280;68451;49.510;6.026;2024-01-15T16:23:28;97117.09;;;-0.30
79053;BMP280;68451;49.510;6.026;2024-01-15T16:26:15;97133.72;;;-0.26
79053;BMP280;68451;49.510;6.026;2024-01-15T16:28:43;97135.25;;;-0.17
79053;BMP280;68451;49.510;6.026;2024-01-15T16:31:10;97122.06;;;-0.29
79053;BMP280;68451;49.510;6.026;2024-01-15T16:33:37;97148.06;;;-0.17
79053;BMP280;68451;49.510;6.026;2024-01-15T16:36:04;97126.56;;;-0.31
79053;BMP280;68451;49.510;6.026;2024-01-15T16:38:31;97134.88;;;-0.29
79053;BMP280;68451;49.510;6.026;2024-01-15T16:40:58;96998.28;;;-1.12
79053;BMP280;68451;49.510;6.026;2024-01-15T16:43:26;96962.44;;;-1.35
79053;BMP280;68451;49.510;6.026;2024-01-15T16:45:53;97150.75;;;-0.11
79053;BMP280;68451;49.510;6.026;2024-01-15T16:48:20;97160.56;;;-0.14
79053;BMP280;68451;49.510;6.026;2024-01-15T16:50:47;96870.28;;;-2.03
79053;BMP280;68451;49.510;6.026;2024-01-15T16:53:14;97153.72;;;-0.22
79053;BMP280;68451;49.510;6.026;2024-01-15T16:55:41;97155.41;;;-0.29
79053;BMP280;68451;49.510;6.026;2024-01-15T16:58:09;97164.47;;;-0.18
79053;BMP280;68451;49.510;6.026;2024-01-15T17:00:36;97114.91;;;-0.56
79053;BMP280;68451;49.510;6.026;2024-01-15T17:03:03;97166.22;;;-0.19
79053;BMP280;68451;49.510;6.026;2024-01-15T17:05:30;97183.19;;;-0.18
79053;BMP280;68451;49.510;6.026;2024-01-15T17:07:57;97199.16;;;-0.08
79053;BMP280;68451;49.510;6.026;2024-01-15T17:10:24;97194.38;;;-0.11
79053;BMP280;68451;49.510;6.026;2024-01-15T17:12:51;97192.69;;;-0.18
79053;BMP280;68451;49.510;6.026;2024-01-15T17:15:18;97175.91;;;-0.29
79053;BMP280;68451;49.510;6.026;2024-01-15T17:17:45;97173.88;;;-0.33
79053;BMP280;68451;49.510;6.026;2024-01-15T17:20:12;97187.06;;;-0.22
79053;BMP280;68451;49.510;6.026;2024-01-15T17:22:39;97184.25;;;-0.27
79053;BMP280;68451;49.510;6.026;2024-01-15T17:25:06;97188.69;;;-0.21